createdAt,value
2018-04-11T00:00:52.266Z,75.19
2018-04-11T00:03:19.935Z,75.57
2018-04-11T00:05:47.598Z,75.22
2018-04-11T00:08:15.357Z,75.15
2018-04-11T00:10:42.987Z,75.11
2018-04-11T00:13:09.878Z,75.21
2018-04-11T00:15:36.801Z,75.15
2018-04-11T00:18:03.692Z,75.73
2018-04-11T00:20:30.590Z,75.73
2018-04-11T00:22:57.859Z,75.43
2018-04-11T00:25:24.790Z,75.74
2018-04-11T00:27:51.656Z,75.65
2018-04-11T00:30:19.609Z,75.49
2018-04-11T00:32:47.265Z,75.53
2018-04-11T00:35:14.141Z,75.53
2018-04-11T00:37:41.382Z,75.65
2018-04-11T00:40:09.005Z,75.40
2018-04-11T00:42:35.969Z,75.43
2018-04-11T00:45:03.240Z,75.52
2018-04-11T00:47:30.857Z,75.54
2018-04-11T00:49:57.733Z,75.46
2018-04-11T00:52:25.132Z,75.45
2018-04-11T00:54:52.003Z,75.45
2018-04-11T00:57:18.894Z,75.47
2018-04-11T00:59:46.794Z,75.47
2018-04-11T01:02:13.672Z,75.17
2018-04-11T01:04:40.553Z,75.04
2018-04-11T01:07:08.422Z,75.18
2018-04-11T01:09:36.141Z,75.29
2018-04-11T01:12:03.172Z,75.55
2018-04-11T01:14:30.079Z,75.36
2018-04-11T01:16:57.697Z,75.59
2018-04-11T01:19:24.570Z,75.47
2018-04-11T01:21:51.492Z,75.55
2018-04-11T01:24:18.409Z,75.40
2018-04-11T01:26:45.345Z,75.52
2018-04-11T01:29:12.618Z,75.59
2018-04-11T01:31:39.533Z,75.56
2018-04-11T01:34:07.198Z,75.73
2018-04-11T01:36:34.137Z,75.94
2018-04-11T01:39:01.030Z,75.85
2018-04-11T01:41:27.911Z,75.78
2018-04-11T01:43:55.820Z,75.98
2018-04-11T01:46:22.741Z,75.83
2018-04-11T01:48:50.399Z,75.77
2018-04-11T01:51:18.118Z,75.80
2018-04-11T01:53:45.039Z,75.77
2018-04-11T01:56:11.907Z,75.76
2018-04-11T01:58:38.834Z,75.83
2018-04-11T02:01:05.933Z,76.00
2018-04-11T02:03:33.003Z,75.93
2018-04-11T02:06:00.628Z,76.20
2018-04-11T02:08:27.546Z,76.19
2018-04-11T02:10:54.612Z,76.06
2018-04-11T02:13:21.489Z,76.04
2018-04-11T02:15:48.698Z,76.25
2018-04-11T02:18:15.613Z,76.17
2018-04-11T02:20:43.225Z,76.22
2018-04-11T02:23:10.192Z,76.18
2018-04-11T02:25:37.064Z,76.26
2018-04-11T02:28:05.029Z,76.32
2018-04-11T02:30:32.649Z,76.37
2018-04-11T02:32:59.529Z,76.27
2018-04-11T02:35:27.503Z,76.36
2018-04-11T02:37:55.133Z,76.28
2018-04-11T02:40:22.005Z,76.60
2018-04-11T02:42:49.315Z,76.50
2018-04-11T02:45:16.188Z,76.33
2018-04-11T02:47:43.078Z,76.28
2018-04-11T02:50:10.067Z,76.29
2018-04-11T02:52:36.958Z,76.39
2018-04-11T02:55:04.595Z,76.33
2018-04-11T02:57:32.524Z,76.38
2018-04-11T02:59:59.438Z,76.41
2018-04-11T03:02:26.362Z,76.54
2018-04-11T03:04:53.295Z,76.44
2018-04-11T03:07:20.177Z,76.33
2018-04-11T03:09:47.808Z,76.58
2018-04-11T03:12:15.298Z,76.52
2018-04-11T03:14:51.114Z,76.46
2018-04-11T03:17:18.543Z,76.57
2018-04-11T03:19:45.409Z,76.70
2018-04-11T03:22:12.293Z,76.59
2018-04-11T03:24:40.252Z,76.64
2018-04-11T03:27:07.162Z,76.64
2018-04-11T03:29:34.054Z,76.61
2018-04-11T03:32:02.023Z,76.76
2018-04-11T03:34:29.684Z,76.68
2018-04-11T03:36:57.314Z,76.73
2018-04-11T03:39:24.599Z,76.64
2018-04-11T03:41:52.250Z,76.60
2018-04-11T03:44:19.130Z,76.79
2018-04-11T03:46:46.062Z,76.93
2018-04-11T03:49:13.758Z,76.96
2018-04-11T03:51:41.014Z,77.12
2018-04-11T03:54:07.894Z,77.14
2018-04-11T03:56:34.780Z,77.23
2018-04-11T03:59:02.016Z,77.31
2018-04-11T04:01:29.647Z,77.18
2018-04-11T04:03:56.574Z,77.08
2018-04-11T04:06:23.773Z,77.14
2018-04-11T04:08:50.685Z,77.10
2018-04-11T04:11:17.585Z,77.00
2018-04-11T04:14:03.735Z,76.84
2018-04-11T04:16:49.052Z,77.09
2018-04-11T04:19:34.932Z,76.85
2018-04-11T04:22:02.584Z,76.64
2018-04-11T04:24:30.266Z,76.77
2018-04-11T04:26:58.121Z,77.04
2018-04-11T04:29:25.034Z,76.87
2018-04-11T04:31:51.920Z,76.67
2018-04-11T04:34:18.890Z,76.53
2018-04-11T04:36:45.776Z,76.52
2018-04-11T04:39:12.642Z,76.41
2018-04-11T04:41:39.906Z,76.18
2018-04-11T04:44:07.576Z,75.97
2018-04-11T04:46:35.293Z,76.28
2018-04-11T04:49:02.266Z,75.90
2018-04-11T04:51:29.197Z,75.94
2018-04-11T04:53:56.069Z,75.79
2018-04-11T04:56:23.031Z,75.78
2018-04-11T04:58:50.680Z,75.99
2018-04-11T05:01:18.350Z,75.54
2018-04-11T05:03:46.311Z,75.57
2018-04-11T05:06:13.177Z,75.72
2018-04-11T05:08:40.831Z,75.51
2018-04-11T05:11:08.817Z,75.39
2018-04-11T05:13:36.086Z,75.23
2018-04-11T05:16:03.147Z,74.95
2018-04-11T05:18:30.351Z,74.77
2018-04-11T05:20:57.268Z,74.87
2018-04-11T05:23:24.491Z,74.67
2018-04-11T05:25:51.476Z,74.74
2018-04-11T05:28:18.405Z,74.69
2018-04-11T05:30:45.275Z,74.84
2018-04-11T05:33:12.434Z,74.70
2018-04-11T05:35:39.369Z,74.62
2018-04-11T05:38:06.290Z,74.46
2018-04-11T05:40:33.538Z,73.90
2018-04-11T05:43:00.416Z,74.05
2018-04-11T05:45:27.300Z,74.25
2018-04-11T05:47:54.308Z,73.73
2018-04-11T05:50:21.232Z,73.09
2018-04-11T05:52:48.148Z,73.17
2018-04-11T05:55:15.018Z,73.33
2018-04-11T05:57:41.907Z,72.58
2018-04-11T06:00:09.893Z,72.36
2018-04-11T06:02:37.529Z,71.88
2018-04-11T06:05:04.483Z,72.15
2018-04-11T06:07:31.653Z,72.75
2018-04-11T06:09:59.262Z,73.37
2018-04-11T06:12:26.171Z,73.30
2018-04-11T06:14:53.402Z,73.39
2018-04-11T06:17:21.119Z,72.95
2018-04-11T06:19:47.999Z,72.56
2018-04-11T06:22:14.915Z,71.75
2018-04-11T06:24:41.801Z,71.67
2018-04-11T06:27:09.421Z,72.30
2018-04-11T06:29:36.538Z,72.42
2018-04-11T06:32:03.517Z,72.36
2018-04-11T06:34:30.393Z,71.82
2018-04-11T06:36:57.653Z,71.57
2018-04-11T06:39:24.525Z,71.01
2018-04-11T06:41:51.446Z,71.63
2018-04-11T06:44:19.133Z,71.84
2018-04-11T06:46:46.026Z,71.59
2018-04-11T06:49:13.214Z,70.87
2018-04-11T06:51:40.835Z,69.62
2018-04-11T06:54:07.738Z,70.15
2018-04-11T06:56:35.010Z,69.63
2018-04-11T06:59:01.894Z,70.50
2018-04-11T07:01:28.811Z,70.28
2018-04-11T07:03:56.016Z,69.74
2018-04-11T07:06:23.625Z,69.74
2018-04-11T07:08:50.521Z,70.76
2018-04-11T07:11:18.457Z,70.63
2018-04-11T07:13:46.220Z,70.54
2018-04-11T07:16:13.096Z,70.42
2018-04-11T07:18:40.458Z,70.59
2018-04-11T07:21:07.370Z,70.95
2018-04-11T07:23:34.240Z,70.75
2018-04-11T07:26:01.266Z,69.73
2018-04-11T07:28:28.121Z,68.81
2018-04-11T07:30:55.042Z,69.01
2018-04-11T07:33:21.925Z,69.74
2018-04-11T07:35:49.092Z,69.11
2018-04-11T07:38:17.066Z,68.83
2018-04-11T07:40:44.698Z,69.18
2018-04-11T07:43:11.623Z,68.18
2018-04-11T07:45:38.768Z,67.40
2018-04-11T07:48:05.687Z,67.94
2018-04-11T07:50:32.582Z,69.16
2018-04-11T07:52:59.752Z,69.73
2018-04-11T07:55:26.626Z,69.74
2018-04-11T07:57:53.540Z,69.55
2018-04-11T08:00:20.592Z,69.28
2018-04-11T08:02:47.478Z,68.91
2018-04-11T08:05:14.414Z,67.81
2018-04-11T08:07:41.330Z,67.92
2018-04-11T08:10:09.022Z,68.86
2018-04-11T08:12:36.263Z,68.81
2018-04-11T08:15:03.975Z,69.64
2018-04-11T08:17:30.864Z,69.10
2018-04-11T08:19:58.888Z,69.49
2018-04-11T08:22:26.497Z,70.18
2018-04-11T08:24:54.159Z,70.67
2018-04-11T08:27:21.861Z,70.54
2018-04-11T08:29:48.814Z,69.75
2018-04-11T08:32:15.736Z,69.96
2018-04-11T08:34:42.656Z,69.56
2018-04-11T08:37:09.554Z,69.40
2018-04-11T08:39:36.583Z,69.60
2018-04-11T08:42:04.642Z,69.88
2018-04-11T08:44:32.262Z,70.27
2018-04-11T08:46:59.144Z,69.89
2018-04-11T08:49:27.097Z,69.93
2018-04-11T08:51:54.010Z,69.39
2018-04-11T08:54:20.903Z,69.15
2018-04-11T08:56:48.564Z,69.04
2018-04-11T08:59:16.206Z,69.30
2018-04-11T09:01:43.250Z,69.42
2018-04-11T09:04:10.174Z,69.19
2018-04-11T09:06:37.078Z,69.14
2018-04-11T09:09:05.086Z,69.02
2018-04-11T09:11:31.977Z,68.32
2018-04-11T09:13:58.929Z,68.59
2018-04-11T09:16:25.901Z,68.61
2018-04-11T09:18:52.805Z,68.00
2018-04-11T09:21:19.851Z,68.42
2018-04-11T09:23:46.832Z,68.37
2018-04-11T09:26:14.500Z,68.47
2018-04-11T09:28:42.128Z,67.99
2018-04-11T09:31:09.503Z,68.46
2018-04-11T09:33:37.245Z,69.06
2018-04-11T09:36:04.180Z,68.89
2018-04-11T09:38:31.411Z,68.30
2018-04-11T09:40:58.302Z,67.41
2018-04-11T09:43:25.232Z,66.90
2018-04-11T09:45:52.522Z,67.81
2018-04-11T09:48:20.163Z,67.83
2018-04-11T09:50:47.057Z,67.41
2018-04-11T09:53:14.303Z,67.43
2018-04-11T09:55:41.274Z,67.05
2018-04-11T09:58:08.178Z,66.07
2018-04-11T10:00:35.990Z,65.38
2018-04-11T10:03:04.844Z,65.76
2018-04-11T10:05:32.498Z,65.98
2018-04-11T10:08:01.212Z,65.38
2018-04-11T10:10:28.137Z,64.89
2018-04-11T10:12:55.798Z,65.39
2018-04-11T10:15:23.558Z,63.85
2018-04-11T10:17:51.160Z,63.70
2018-04-11T10:20:18.039Z,63.63
2018-04-11T10:22:45.343Z,63.70
2018-04-11T10:25:12.256Z,63.69
2018-04-11T10:27:39.133Z,63.23
2018-04-11T10:30:07.270Z,62.63
2018-04-11T10:32:34.150Z,62.32
2018-04-11T10:35:01.073Z,62.34
2018-04-11T10:37:28.822Z,61.50
2018-04-11T10:39:55.683Z,62.18
2018-04-11T10:42:23.306Z,60.80
2018-04-11T10:44:50.228Z,61.43
2018-04-11T10:47:17.113Z,61.41
2018-04-11T10:49:43.989Z,60.80
2018-04-11T10:52:11.734Z,61.74
2018-04-11T10:54:38.628Z,61.55
2018-04-11T10:57:05.519Z,61.56
2018-04-11T10:59:32.628Z,62.59
2018-04-11T11:01:59.595Z,63.08
2018-04-11T11:04:26.504Z,63.87
2018-04-11T11:06:53.537Z,63.84
2018-04-11T11:09:21.177Z,63.24
2018-04-11T11:11:48.046Z,61.83
2018-04-11T11:14:15.017Z,62.10
2018-04-11T11:16:41.896Z,63.15
2018-04-11T11:19:08.781Z,62.70
2018-04-11T11:21:36.637Z,62.21
2018-04-11T11:24:04.318Z,61.62
2018-04-11T11:26:31.976Z,61.42
2018-04-11T11:28:59.650Z,60.71
2018-04-11T11:31:26.521Z,60.18
2018-04-11T11:33:53.400Z,60.04
2018-04-11T11:36:20.320Z,60.20
2018-04-11T11:38:47.255Z,59.87
2018-04-11T11:41:14.209Z,58.94
2018-04-11T11:43:41.350Z,59.93
2018-04-11T11:46:08.280Z,60.58
2018-04-11T11:48:35.153Z,60.02
2018-04-11T11:51:02.202Z,59.90
2018-04-11T11:53:29.073Z,59.23
2018-04-11T11:55:55.984Z,58.77
2018-04-11T11:58:23.088Z,59.04
2018-04-11T12:00:49.961Z,58.63
2018-04-11T12:03:16.852Z,58.40
2018-04-11T12:05:43.881Z,58.80
2018-04-11T12:08:10.799Z,58.11
2018-04-11T12:10:38.408Z,57.52
2018-04-11T12:13:05.414Z,57.33
2018-04-11T12:15:32.326Z,57.30
2018-04-11T12:17:59.203Z,57.04
2018-04-11T12:20:26.122Z,56.60
2018-04-11T12:22:53.004Z,56.38
2018-04-11T12:25:19.875Z,56.05
2018-04-11T12:27:46.848Z,56.08
2018-04-11T12:30:13.719Z,55.55
2018-04-11T12:32:41.330Z,55.66
2018-04-11T12:35:08.418Z,55.91
2018-04-11T12:37:35.366Z,55.10
2018-04-11T12:40:03.044Z,54.46
2018-04-11T12:42:30.884Z,54.61
2018-04-11T12:44:57.800Z,54.95
2018-04-11T12:47:24.660Z,55.18
2018-04-11T12:49:51.760Z,55.39
2018-04-11T12:52:18.638Z,53.52
2018-04-11T12:54:45.550Z,54.22
2018-04-11T12:57:12.671Z,54.35
2018-04-11T12:59:39.594Z,54.78
2018-04-11T13:02:06.486Z,53.66
2018-04-11T13:04:34.245Z,54.21
2018-04-11T13:07:01.858Z,54.63
2018-04-11T13:09:28.737Z,54.04
2018-04-11T13:11:55.693Z,54.24
2018-04-11T13:14:22.669Z,53.10
2018-04-11T13:16:49.536Z,52.53
2018-04-11T13:19:16.564Z,52.58
2018-04-11T13:21:43.531Z,52.73
2018-04-11T13:24:10.439Z,53.01
2018-04-11T13:26:38.179Z,52.31
2018-04-11T13:29:05.052Z,52.59
2018-04-11T13:31:31.921Z,53.22
2018-04-11T13:33:59.109Z,52.60
2018-04-11T13:36:25.959Z,51.51
2018-04-11T13:38:52.876Z,52.14
2018-04-11T13:41:20.024Z,52.10
2018-04-11T13:43:47.084Z,52.16
2018-04-11T13:46:14.062Z,51.60
2018-04-11T13:48:40.980Z,51.37
2018-04-11T13:51:07.853Z,50.97
2018-04-11T13:53:34.775Z,51.99
2018-04-11T13:56:02.005Z,51.83
2018-04-11T13:58:28.892Z,51.84
2018-04-11T14:00:55.806Z,52.58
2018-04-11T14:03:22.742Z,52.00
2018-04-11T14:05:49.659Z,52.58
2018-04-11T14:08:17.299Z,52.86
2018-04-11T14:10:44.278Z,52.21
2018-04-11T14:13:11.193Z,52.64
2018-04-11T14:15:38.864Z,52.34
2018-04-11T14:18:05.838Z,52.81
2018-04-11T14:20:32.713Z,52.98
2018-04-11T14:22:59.590Z,52.46
2018-04-11T14:25:26.606Z,52.63
2018-04-11T14:27:53.470Z,52.83
2018-04-11T14:30:20.385Z,53.15
2018-04-11T14:32:47.420Z,53.08
2018-04-11T14:35:14.341Z,53.44
2018-04-11T14:37:42.345Z,53.03
2018-04-11T14:40:09.302Z,53.26
2018-04-11T14:42:36.250Z,53.09
2018-04-11T14:45:03.332Z,52.94
2018-04-11T14:47:30.295Z,52.94
2018-04-11T14:49:57.919Z,52.80
2018-04-11T14:52:24.780Z,52.55
2018-04-11T14:54:51.792Z,52.79
2018-04-11T14:57:18.682Z,53.11
2018-04-11T14:59:45.548Z,52.85
2018-04-11T15:02:13.302Z,53.22
2018-04-11T15:04:40.178Z,53.83
2018-04-11T15:07:07.085Z,55.22
2018-04-11T15:09:34.178Z,55.54
2018-04-11T15:12:01.072Z,55.60
2018-04-11T15:14:28.021Z,55.88
2018-04-11T15:16:55.227Z,56.09
2018-04-11T15:19:22.083Z,56.56
2018-04-11T15:21:48.987Z,56.51
2018-04-11T15:24:16.649Z,56.67
2018-04-11T15:26:44.251Z,56.65
2018-04-11T15:29:11.128Z,56.24
2018-04-11T15:31:38.097Z,57.28
2018-04-11T15:34:05.733Z,57.10
2018-04-11T15:36:32.610Z,57.46
2018-04-11T15:39:00.478Z,57.05
2018-04-11T15:41:28.097Z,57.10
2018-04-11T15:43:54.961Z,57.43
2018-04-11T15:46:37.269Z,57.27
2018-04-11T15:49:04.165Z,58.05
2018-04-11T15:51:31.067Z,58.59
2018-04-11T15:53:58.230Z,58.87
2018-04-11T15:56:25.897Z,58.89
2018-04-11T15:58:52.824Z,59.27
2018-04-11T16:01:19.875Z,59.61
2018-04-11T16:03:46.804Z,60.80
2018-04-11T16:06:13.681Z,60.59
2018-04-11T16:08:41.348Z,60.22
2018-04-11T16:11:08.998Z,60.65
2018-04-11T16:13:36.665Z,61.02
2018-04-11T16:16:04.675Z,61.43
2018-04-11T16:18:31.536Z,61.15
2018-04-11T16:20:58.481Z,61.99
2018-04-11T16:23:25.427Z,62.33
2018-04-11T16:25:52.300Z,62.64
2018-04-11T16:28:19.236Z,62.87
2018-04-11T16:30:46.211Z,62.92
2018-04-11T16:33:13.900Z,63.21
2018-04-11T16:35:40.764Z,63.14
2018-04-11T16:38:07.773Z,63.36
2018-04-11T16:40:35.457Z,63.74
2018-04-11T16:43:02.326Z,64.40
2018-04-11T16:45:29.574Z,64.56
2018-04-11T16:47:56.528Z,64.80
2018-04-11T16:50:23.469Z,65.75
2018-04-11T16:52:50.685Z,65.27
2018-04-11T16:55:18.345Z,65.71
2018-04-11T16:57:45.973Z,65.90
2018-04-11T17:00:12.989Z,66.18
2018-04-11T17:02:39.911Z,66.62
2018-04-11T17:05:07.544Z,67.38
2018-04-11T17:07:34.709Z,67.49
2018-04-11T17:10:02.426Z,67.60
2018-04-11T17:12:29.387Z,67.87
2018-04-11T17:15:00.387Z,68.07
2018-04-11T17:17:27.312Z,68.22
2018-04-11T17:19:54.981Z,68.58
2018-04-11T17:22:41.326Z,68.64
2018-04-11T17:25:26.735Z,68.77
2018-04-11T17:28:12.134Z,68.85
2018-04-11T17:30:58.211Z,69.21
2018-04-11T17:33:25.160Z,69.24
2018-04-11T17:38:25.528Z,69.54
2018-04-11T17:40:53.179Z,69.70
2018-04-11T17:43:20.046Z,69.72
2018-04-11T17:45:47.804Z,70.00
2018-04-11T17:48:15.481Z,70.24
2018-04-11T17:50:42.421Z,69.96
2018-04-11T17:53:10.247Z,70.16
2018-04-11T17:55:37.137Z,70.36
2018-04-11T17:58:04.804Z,70.39
2018-04-11T18:00:31.717Z,70.41
2018-04-11T18:02:58.594Z,70.57
2018-04-11T18:05:25.477Z,70.67
2018-04-11T18:07:52.670Z,70.57
2018-04-11T18:10:19.544Z,70.93
2018-04-11T18:12:46.425Z,71.04
2018-04-11T18:15:13.510Z,71.39
2018-04-11T18:17:40.386Z,71.30
2018-04-11T18:20:07.266Z,71.19
2018-04-11T18:22:34.290Z,71.24
2018-04-11T18:25:01.200Z,71.23
2018-04-11T18:27:28.815Z,71.33
2018-04-11T18:29:55.925Z,71.58
2018-04-11T18:32:22.832Z,71.66
2018-04-11T18:34:49.722Z,72.69
2018-04-11T18:37:17.008Z,71.56
2018-04-11T18:39:43.946Z,71.63
2018-04-11T18:42:10.837Z,71.77
2018-04-11T18:44:38.534Z,72.06
2018-04-11T18:47:06.143Z,72.03
2018-04-11T18:49:33.036Z,72.15
2018-04-11T18:51:59.980Z,72.20
2018-04-11T18:54:27.592Z,72.25
2018-04-11T18:56:54.461Z,72.35
2018-04-11T18:59:21.367Z,72.48
2018-04-11T19:01:48.257Z,72.66
2018-04-11T19:04:15.137Z,72.85
2018-04-11T19:06:42.195Z,73.01
2018-04-11T19:09:09.067Z,73.40
2018-04-11T19:11:37.412Z,73.60
2018-04-11T19:14:04.353Z,73.79
2018-04-11T19:16:31.288Z,73.68
2018-04-11T19:18:58.213Z,74.02
2018-04-11T19:21:25.252Z,73.97
2018-04-11T19:23:52.133Z,73.97
2018-04-11T19:26:19.745Z,73.98
2018-04-11T19:28:47.238Z,73.96
2018-04-11T19:31:14.920Z,74.16
2018-04-11T19:33:41.830Z,74.15
2018-04-11T19:36:08.894Z,74.26
2018-04-11T19:38:36.546Z,74.32
2018-04-11T19:41:03.505Z,74.78
2018-04-11T19:43:31.334Z,74.53
2018-04-11T19:45:58.258Z,74.67
2018-04-11T19:48:25.173Z,74.60
2018-04-11T19:50:52.977Z,74.60
2018-04-11T19:53:19.853Z,74.58
2018-04-11T19:55:46.753Z,75.08
2018-04-11T19:58:13.880Z,75.18
2018-04-11T20:00:41.488Z,75.07
2018-04-11T20:03:08.377Z,75.20
2018-04-11T20:05:35.281Z,75.25
2018-04-11T20:08:02.200Z,75.29
2018-04-11T20:10:29.074Z,75.33
2018-04-11T20:12:56.279Z,75.28
2018-04-11T20:15:23.984Z,75.27
2018-04-11T20:17:50.955Z,75.18
2018-04-11T20:20:17.921Z,75.35
2018-04-11T20:22:44.805Z,75.45
2018-04-11T20:25:11.745Z,75.15
2018-04-11T20:27:38.654Z,75.26
2018-04-11T20:30:05.624Z,75.19
2018-04-11T20:32:33.253Z,75.36
2018-04-11T20:35:00.312Z,75.21
2018-04-11T20:37:27.182Z,75.42
2018-04-11T20:39:54.805Z,75.28
2018-04-11T20:42:21.865Z,74.92
2018-04-11T20:44:52.669Z,75.09
2018-04-11T20:47:19.583Z,74.88
2018-04-11T20:49:46.856Z,74.85
2018-04-11T20:52:13.784Z,74.92
2018-04-11T20:54:40.657Z,75.17
2018-04-11T20:57:07.669Z,75.13
2018-04-11T20:59:35.280Z,75.23
2018-04-11T21:02:02.211Z,75.20
2018-04-11T21:04:29.170Z,75.01
2018-04-11T21:06:56.090Z,75.21
2018-04-11T21:09:22.965Z,75.72
2018-04-11T21:11:49.971Z,76.97
2018-04-11T21:14:16.918Z,78.16
2018-04-11T21:16:43.845Z,78.03
2018-04-11T21:19:11.577Z,78.02
2018-04-11T21:21:38.462Z,78.16
2018-04-11T21:24:06.074Z,78.27
2018-04-11T21:26:33.216Z,78.59
2018-04-11T21:29:00.088Z,78.46
2018-04-11T21:31:26.990Z,78.49
2018-04-11T21:33:54.026Z,78.52
2018-04-11T21:36:20.947Z,78.76
2018-04-11T21:38:48.566Z,78.69
2018-04-11T21:41:15.504Z,78.97
2018-04-11T21:43:42.382Z,78.87
2018-04-11T21:46:09.264Z,79.10
2018-04-11T21:48:37.021Z,79.36
2018-04-11T21:51:04.648Z,79.48
2018-04-11T21:53:31.964Z,79.78
2018-04-11T21:55:59.066Z,79.76
2018-04-11T21:58:25.982Z,79.70
2018-04-11T22:00:52.871Z,79.70
2018-04-11T22:03:20.713Z,79.68
2018-04-11T22:05:47.594Z,79.85
2018-04-11T22:08:15.209Z,79.98
2018-04-11T22:10:42.106Z,80.51
2018-04-11T22:13:09.715Z,80.68
2018-04-11T22:15:36.641Z,80.55
2018-04-11T22:18:03.694Z,80.61
2018-04-11T22:20:30.615Z,80.63
2018-04-11T22:22:57.506Z,80.80
2018-04-11T22:25:24.449Z,80.55
2018-04-11T22:27:51.342Z,80.76
2018-04-11T22:30:18.971Z,80.71
2018-04-11T22:32:45.925Z,80.54
2018-04-11T22:35:12.834Z,80.83
2018-04-11T22:37:39.702Z,80.67
2018-04-11T22:40:06.886Z,80.71
2018-04-11T22:42:34.547Z,80.66
2018-04-11T22:45:01.417Z,80.49
2018-04-11T22:47:28.539Z,80.39
2018-04-11T22:49:55.454Z,80.41
2018-04-11T22:52:22.341Z,80.38
2018-04-11T22:54:50.121Z,80.50
2018-04-11T22:57:17.060Z,80.48
2018-04-11T22:59:43.969Z,80.40
2018-04-11T23:02:10.982Z,80.44
2018-04-11T23:04:37.892Z,80.63
2018-04-11T23:07:05.583Z,80.28
2018-04-11T23:09:32.618Z,80.34
2018-04-11T23:11:59.540Z,80.59
2018-04-11T23:14:26.506Z,80.60
2018-04-11T23:16:53.668Z,80.97
2018-04-11T23:19:20.576Z,81.03
2018-04-11T23:21:47.446Z,81.06
2018-04-11T23:24:15.235Z,80.91
2018-04-11T23:26:42.096Z,81.21
2018-04-11T23:29:08.963Z,81.27
2018-04-11T23:31:36.747Z,81.11
2018-04-11T23:34:03.610Z,81.20
2018-04-11T23:36:31.237Z,81.29
2018-04-11T23:38:58.216Z,81.24
2018-04-11T23:41:25.863Z,81.04
2018-04-11T23:43:52.779Z,80.95
2018-04-11T23:46:20.443Z,81.04
2018-04-11T23:48:47.359Z,80.94
2018-04-11T23:51:14.271Z,80.96
2018-04-11T23:53:41.181Z,81.03
2018-04-11T23:56:08.111Z,81.07
2018-04-11T23:58:35.070Z,81.01
